createdAt,value
2022-11-07T00:01:50.527Z,4.03
2022-11-07T00:04:17.398Z,3.45
2022-11-07T00:06:44.159Z,3.85
2022-11-07T00:09:10.818Z,3.90
2022-11-07T00:11:37.430Z,3.30
2022-11-07T00:14:04.102Z,3.33
2022-11-07T00:16:31.895Z,3.42
2022-11-07T00:18:58.490Z,4.13
2022-11-07T00:21:25.063Z,3.63
2022-11-07T00:23:51.645Z,3.65
2022-11-07T00:26:18.240Z,3.45
2022-11-07T00:28:45.299Z,4.03
2022-11-07T00:31:13.313Z,3.63
2022-11-07T00:33:41.048Z,4.88
2022-11-07T00:36:08.297Z,4.57
2022-11-07T00:38:35.429Z,4.57
2022-11-07T00:41:05.221Z,4.03
2022-11-07T00:43:32.911Z,3.70
2022-11-07T00:46:05.188Z,3.88
2022-11-07T00:48:35.000Z,4.57
2022-11-07T00:51:16.435Z,3.13
2022-11-07T00:53:43.105Z,3.40
2022-11-07T00:56:14.953Z,3.42
2022-11-07T00:58:42.819Z,4.45
2022-11-07T01:01:11.962Z,3.30
2022-11-07T01:03:57.712Z,4.32
2022-11-07T01:06:27.209Z,5.05
2022-11-07T01:08:54.966Z,4.20
2022-11-07T01:11:21.711Z,4.45
2022-11-07T01:13:48.297Z,4.18
2022-11-07T01:16:15.279Z,3.33
2022-11-07T01:18:44.529Z,3.53
2022-11-07T01:21:16.242Z,3.85
2022-11-07T01:24:03.203Z,3.30
2022-11-07T01:31:18.434Z,5.43
2022-11-07T01:33:49.092Z,3.92
2022-11-07T01:36:17.934Z,5.18
2022-11-07T01:38:48.595Z,4.32
2022-11-07T01:41:27.874Z,4.15
2022-11-07T01:44:23.636Z,4.47
2022-11-07T01:46:56.894Z,4.60
2022-11-07T01:49:28.957Z,3.92
2022-11-07T01:52:04.349Z,4.00
2022-11-07T01:54:41.749Z,3.67
2022-11-07T01:57:20.874Z,4.97
2022-11-07T01:59:50.813Z,5.80
2022-11-07T02:02:17.954Z,4.07
2022-11-07T02:04:44.992Z,5.22
2022-11-07T02:07:18.337Z,4.45
2022-11-07T02:09:45.441Z,4.43
2022-11-07T02:12:13.173Z,5.05
2022-11-07T02:14:42.227Z,3.72
2022-11-07T02:17:10.458Z,6.43
2022-11-07T02:19:43.284Z,5.43
2022-11-07T02:22:09.814Z,3.55
2022-11-07T02:24:38.746Z,6.22
2022-11-07T02:27:13.093Z,4.38
2022-11-07T02:29:42.523Z,4.07
2022-11-07T02:32:11.370Z,3.50
2022-11-07T02:34:38.564Z,5.40
2022-11-07T02:37:17.448Z,5.72
2022-11-07T02:39:43.987Z,3.28
2022-11-07T02:42:10.665Z,3.38
2022-11-07T02:44:37.438Z,5.55
2022-11-07T02:47:04.162Z,3.95
2022-11-07T02:49:30.796Z,4.22
2022-11-07T02:51:57.389Z,3.80
2022-11-07T02:54:23.908Z,4.93
2022-11-07T02:56:50.600Z,3.58
2022-11-07T02:59:26.945Z,4.15
2022-11-07T03:01:57.159Z,5.93
2022-11-07T03:04:24.774Z,4.45
2022-11-07T03:06:51.698Z,3.70
2022-11-07T03:09:18.222Z,4.35
2022-11-07T03:11:44.806Z,3.22
2022-11-07T03:14:11.391Z,3.30
2022-11-07T03:16:38.471Z,3.50
2022-11-07T03:19:05.196Z,3.53
2022-11-07T03:21:32.418Z,3.42
2022-11-07T03:23:58.992Z,5.32
2022-11-07T03:26:25.565Z,5.13
2022-11-07T03:28:52.259Z,3.88
2022-11-07T03:31:18.937Z,3.22
2022-11-07T03:33:45.545Z,3.42
2022-11-07T03:36:12.494Z,3.60
2022-11-07T03:38:39.071Z,7.80
2022-11-07T03:41:05.805Z,5.07
2022-11-07T03:43:32.679Z,4.53
2022-11-07T03:46:03.920Z,4.28
2022-11-07T03:48:33.461Z,5.03
2022-11-07T03:51:00.100Z,4.68
2022-11-07T03:53:28.595Z,4.05
2022-11-07T03:55:56.183Z,5.25
2022-11-07T03:58:25.833Z,4.45
2022-11-07T04:00:52.725Z,3.63
2022-11-07T04:03:19.297Z,6.45
2022-11-07T04:05:45.897Z,3.80
2022-11-07T04:08:12.516Z,4.28
2022-11-07T04:10:39.200Z,6.10
2022-11-07T04:13:24.505Z,3.55
2022-11-07T04:16:14.934Z,3.20
2022-11-07T04:18:43.948Z,3.65
2022-11-07T04:21:10.770Z,3.95
2022-11-07T04:23:40.026Z,4.50
2022-11-07T04:26:25.293Z,3.30
2022-11-07T04:28:51.917Z,4.43
2022-11-07T04:31:18.488Z,4.45
2022-11-07T04:33:46.121Z,3.65
2022-11-07T04:36:12.914Z,4.38
2022-11-07T04:38:42.188Z,4.03
2022-11-07T04:41:22.381Z,5.10
2022-11-07T04:43:49.069Z,4.75
2022-11-07T04:46:16.608Z,4.53
2022-11-07T04:48:44.256Z,5.15
2022-11-07T04:51:19.815Z,3.78
2022-11-07T04:53:46.460Z,3.85
2022-11-07T04:56:13.131Z,5.15
2022-11-07T04:58:39.672Z,4.82
2022-11-07T05:01:06.250Z,5.47
2022-11-07T05:03:36.232Z,5.43
2022-11-07T05:06:06.098Z,4.30
2022-11-07T05:08:32.683Z,4.72
2022-11-07T05:10:59.207Z,4.15
2022-11-07T05:13:25.835Z,4.10
2022-11-07T05:15:55.424Z,4.80
2022-11-07T05:18:25.092Z,4.05
2022-11-07T05:20:55.911Z,6.78
2022-11-07T05:23:22.662Z,4.60
2022-11-07T05:25:59.353Z,5.13
2022-11-07T05:28:37.008Z,5.75
2022-11-07T05:31:09.439Z,4.75
2022-11-07T05:33:47.362Z,5.32
2022-11-07T05:36:19.112Z,4.80
2022-11-07T05:38:48.355Z,4.78
2022-11-07T05:41:16.605Z,5.72
2022-11-07T05:43:43.457Z,4.60
2022-11-07T05:46:10.769Z,5.15
2022-11-07T05:48:38.034Z,5.90
2022-11-07T05:51:06.992Z,6.18
2022-11-07T05:53:34.501Z,5.57
2022-11-07T05:56:01.103Z,6.35
2022-11-07T05:58:27.665Z,5.75
2022-11-07T06:00:54.246Z,5.65
2022-11-07T06:03:21.161Z,5.70
2022-11-07T06:05:48.226Z,5.43
2022-11-07T06:08:15.371Z,5.82
2022-11-07T06:10:43.542Z,5.28
2022-11-07T06:13:15.667Z,4.95
2022-11-07T06:15:44.731Z,6.45
2022-11-07T06:18:19.999Z,6.28
2022-11-07T06:20:47.787Z,6.15
2022-11-07T06:23:16.880Z,5.30
2022-11-07T06:25:47.276Z,6.20
2022-11-07T06:28:18.223Z,6.32
2022-11-07T06:33:17.348Z,6.85
2022-11-07T06:35:53.131Z,5.55
2022-11-07T06:38:25.042Z,6.03
2022-11-07T06:40:51.797Z,6.32
2022-11-07T06:43:26.817Z,7.25
2022-11-07T06:46:27.773Z,7.50
2022-11-07T06:49:14.927Z,9.70
2022-11-07T06:51:47.864Z,6.78
2022-11-07T06:57:10.653Z,6.45
2022-11-07T06:59:37.473Z,8.05
2022-11-07T07:02:30.470Z,6.40
2022-11-07T07:05:01.326Z,4.80
2022-11-07T07:07:31.195Z,5.00
2022-11-07T07:09:57.974Z,5.47
2022-11-07T07:12:26.382Z,4.95
2022-11-07T07:14:52.923Z,4.80
2022-11-07T07:17:19.525Z,4.95
2022-11-07T07:19:46.145Z,14.00
2022-11-07T07:22:14.098Z,4.50
2022-11-07T07:24:40.722Z,4.43
2022-11-07T07:27:08.025Z,5.15
2022-11-07T07:29:34.777Z,6.63
2022-11-07T07:32:10.533Z,4.45
2022-11-07T07:34:37.554Z,6.88
2022-11-07T07:37:04.688Z,13.60
2022-11-07T07:39:31.559Z,13.55
2022-11-07T07:41:58.715Z,6.43
2022-11-07T07:44:25.401Z,5.28
2022-11-07T07:46:52.227Z,5.07
2022-11-07T07:49:18.967Z,4.50
2022-11-07T07:51:53.417Z,5.68
2022-11-07T07:54:20.197Z,4.30
2022-11-07T07:56:46.993Z,5.35
2022-11-07T07:59:13.887Z,5.63
2022-11-07T08:01:40.604Z,4.85
2022-11-07T08:04:07.679Z,8.57
2022-11-07T08:06:35.609Z,5.80
2022-11-07T08:09:02.389Z,5.47
2022-11-07T08:11:45.081Z,5.10
2022-11-07T08:14:14.510Z,5.50
2022-11-07T08:16:44.481Z,5.43
2022-11-07T08:19:18.022Z,6.43
2022-11-07T08:25:28.902Z,5.38
2022-11-07T08:28:03.642Z,5.65
2022-11-07T08:30:31.958Z,4.93
2022-11-07T08:33:10.096Z,6.43
2022-11-07T08:35:47.598Z,4.30
2022-11-07T08:40:53.135Z,4.65
2022-11-07T08:43:20.576Z,5.70
2022-11-07T08:45:54.059Z,5.00
2022-11-07T08:48:21.449Z,4.18
2022-11-07T08:51:01.579Z,4.53
2022-11-07T08:54:00.490Z,4.53
2022-11-07T08:56:35.887Z,3.88
2022-11-07T08:59:02.573Z,6.07
2022-11-07T09:02:15.046Z,3.92
2022-11-07T09:04:30.982Z,4.15
2022-11-07T09:06:57.685Z,4.28
2022-11-07T09:09:36.799Z,5.35
2022-11-07T09:12:06.298Z,3.88
2022-11-07T09:14:32.991Z,4.20
2022-11-07T09:16:59.715Z,4.50
2022-11-07T09:19:27.810Z,5.65
2022-11-07T09:22:00.074Z,3.55
2022-11-07T09:24:27.084Z,3.38
2022-11-07T09:26:56.843Z,5.47
2022-11-07T09:29:24.000Z,3.58
2022-11-07T09:31:51.528Z,4.75
2022-11-07T09:34:38.090Z,3.25
2022-11-07T09:37:05.409Z,5.28
2022-11-07T09:39:32.147Z,2.05
2022-11-07T09:45:04.816Z,3.10
2022-11-07T09:47:43.921Z,3.50
2022-11-07T09:50:18.219Z,4.32
2022-11-07T09:53:34.098Z,3.22
2022-11-07T09:56:05.681Z,3.97
2022-11-07T09:58:51.814Z,4.15
2022-11-07T10:01:33.342Z,2.80
2022-11-07T10:07:28.455Z,4.03
2022-11-07T10:11:11.075Z,3.95
2022-11-07T10:13:59.900Z,3.53
2022-11-07T10:16:44.733Z,3.22
2022-11-07T10:19:58.197Z,3.65
2022-11-07T10:23:18.649Z,4.90
2022-11-07T10:26:16.846Z,4.32
2022-11-07T10:29:12.181Z,3.17
2022-11-07T10:31:46.974Z,5.78
2022-11-07T10:34:26.549Z,3.42
2022-11-07T10:36:58.230Z,2.78
2022-11-07T10:40:09.587Z,4.47
2022-11-07T10:42:57.261Z,4.20
2022-11-07T10:45:28.260Z,6.90
2022-11-07T10:48:15.538Z,3.22
2022-11-07T10:50:58.895Z,2.92
2022-11-07T10:56:29.003Z,4.00
2022-11-07T10:59:19.929Z,3.30
2022-11-07T11:02:17.996Z,4.47
2022-11-07T11:16:43.045Z,6.20
2022-11-07T11:19:41.406Z,3.75
2022-11-07T11:22:16.876Z,3.25
2022-11-07T11:24:43.422Z,3.63
2022-11-07T11:27:21.311Z,4.75
2022-11-07T11:29:53.156Z,3.30
2022-11-07T11:32:32.829Z,4.28
2022-11-07T11:35:14.405Z,4.55
2022-11-07T11:37:43.791Z,3.17
2022-11-07T11:40:18.568Z,2.35
2022-11-07T11:42:53.840Z,3.95
2022-11-07T11:45:35.732Z,5.15
2022-11-07T11:48:10.685Z,4.15
2022-11-07T11:50:47.981Z,6.32
2022-11-07T11:53:22.576Z,4.70
2022-11-07T11:56:09.593Z,4.60
2022-11-07T11:58:58.379Z,4.47
2022-11-07T12:02:06.140Z,5.13
2022-11-07T12:04:50.826Z,3.50
2022-11-07T12:07:45.637Z,3.47
2022-11-07T12:10:25.602Z,4.63
2022-11-07T12:12:52.136Z,5.50
2022-11-07T12:15:31.176Z,4.35
2022-11-07T12:18:09.887Z,3.28
2022-11-07T12:21:10.226Z,2.65
2022-11-07T12:23:58.210Z,3.30
2022-11-07T12:26:34.099Z,2.90
2022-11-07T12:29:00.547Z,4.32
2022-11-07T12:31:27.068Z,2.88
2022-11-07T12:34:00.818Z,3.65
2022-11-07T12:36:53.680Z,4.30
2022-11-07T12:39:20.145Z,3.55
2022-11-07T12:41:46.610Z,5.68
2022-11-07T12:44:25.161Z,3.05
2022-11-07T12:46:58.082Z,4.93
2022-11-07T12:49:49.504Z,4.93
2022-11-07T12:52:59.889Z,3.42
2022-11-07T12:55:34.871Z,2.92
2022-11-07T12:58:04.020Z,3.70
2022-11-07T13:00:30.987Z,4.55
2022-11-07T13:03:42.643Z,3.38
2022-11-07T13:06:22.137Z,4.10
2022-11-07T13:09:13.279Z,3.20
2022-11-07T13:12:07.132Z,4.93
2022-11-07T13:14:38.876Z,3.28
2022-11-07T13:17:08.393Z,3.45
2022-11-07T13:19:37.287Z,5.57
2022-11-07T13:22:20.045Z,3.50
2022-11-07T13:24:53.296Z,4.40
2022-11-07T13:27:22.839Z,4.20
2022-11-07T13:29:49.516Z,3.45
2022-11-07T13:32:16.957Z,4.35
2022-11-07T13:34:49.738Z,4.15
2022-11-07T13:37:20.522Z,4.13
2022-11-07T13:39:51.063Z,5.47
2022-11-07T13:42:18.745Z,4.47
2022-11-07T13:44:52.961Z,4.03
2022-11-07T13:47:26.114Z,4.50
2022-11-07T13:49:57.035Z,3.55
2022-11-07T13:52:34.683Z,4.65
2022-11-07T13:55:09.089Z,3.55
2022-11-07T13:57:42.974Z,2.97
2022-11-07T14:00:19.436Z,3.65
2022-11-07T14:02:57.531Z,3.97
2022-11-07T14:05:27.162Z,5.35
2022-11-07T14:08:02.172Z,3.88
2022-11-07T14:10:39.236Z,4.07
2022-11-07T14:13:19.723Z,4.90
2022-11-07T14:15:49.153Z,4.95
2022-11-07T14:18:18.329Z,5.65
2022-11-07T14:20:50.363Z,5.13
2022-11-07T14:23:21.416Z,4.70
2022-11-07T14:25:58.312Z,6.35
2022-11-07T14:28:25.063Z,5.45
2022-11-07T14:30:52.801Z,6.43
2022-11-07T14:33:22.370Z,6.18
2022-11-07T14:35:51.613Z,7.47
2022-11-07T14:38:22.410Z,6.70
2022-11-07T14:40:50.248Z,7.93
2022-11-07T14:43:20.835Z,6.25
2022-11-07T14:46:11.423Z,8.60
2022-11-07T14:48:35.514Z,6.15
2022-11-07T14:51:02.873Z,6.82
2022-11-07T14:53:36.343Z,8.85
2022-11-07T14:56:08.734Z,9.23
2022-11-07T14:58:35.422Z,11.57
2022-11-07T15:01:08.020Z,7.55
2022-11-07T15:03:37.109Z,10.37
2022-11-07T15:06:04.394Z,9.27
2022-11-07T15:08:36.273Z,10.88
2022-11-07T15:11:07.583Z,7.30
2022-11-07T15:13:35.232Z,6.93
2022-11-07T15:16:05.802Z,9.10
2022-11-07T15:18:37.784Z,8.85
2022-11-07T15:21:04.970Z,7.55
2022-11-07T15:23:33.736Z,8.13
2022-11-07T15:26:06.675Z,7.53
2022-11-07T15:28:42.259Z,8.15
2022-11-07T15:31:21.971Z,9.43
2022-11-07T15:33:48.569Z,15.68
2022-11-07T15:36:15.858Z,13.00
2022-11-07T15:38:43.019Z,8.32
2022-11-07T15:41:11.396Z,9.85
2022-11-07T15:43:38.425Z,9.15
2022-11-07T15:46:21.046Z,10.02
2022-11-07T15:48:47.988Z,11.75
2022-11-07T15:51:14.689Z,11.30
2022-11-07T15:53:41.211Z,9.02
2022-11-07T15:56:11.747Z,10.23
2022-11-07T15:58:38.252Z,8.82
2022-11-07T16:01:04.841Z,6.22
2022-11-07T16:03:31.443Z,7.90
2022-11-07T16:06:02.767Z,7.10
2022-11-07T16:08:30.456Z,9.05
2022-11-07T16:11:00.991Z,8.10
2022-11-07T16:13:28.783Z,8.73
2022-11-07T16:16:00.258Z,9.98
2022-11-07T16:18:30.284Z,9.32
2022-11-07T16:25:38.754Z,11.32
2022-11-07T16:28:06.112Z,9.50
2022-11-07T16:30:33.721Z,9.10
2022-11-07T16:33:00.690Z,9.32
2022-11-07T16:35:27.241Z,9.30
2022-11-07T16:37:53.855Z,12.48
2022-11-07T16:40:20.428Z,11.90
2022-11-07T16:42:47.524Z,12.60
2022-11-07T16:45:16.417Z,11.48
2022-11-07T16:47:44.037Z,13.90
2022-11-07T16:50:13.946Z,15.90
2022-11-07T16:52:40.514Z,11.20
2022-11-07T16:55:07.671Z,12.88
2022-11-07T16:57:36.251Z,12.40
2022-11-07T17:00:04.500Z,15.20
2022-11-07T17:02:31.247Z,14.30
2022-11-07T17:04:58.066Z,15.50
2022-11-07T17:07:24.716Z,17.83
2022-11-07T17:09:51.275Z,27.60
2022-11-07T17:12:21.536Z,21.88
2022-11-07T17:14:48.754Z,19.98
2022-11-07T17:17:17.400Z,20.45
2022-11-07T17:19:44.502Z,17.23
2022-11-07T17:22:12.149Z,17.92
2022-11-07T17:24:38.944Z,20.30
2022-11-07T17:27:19.035Z,21.70
2022-11-07T17:29:45.529Z,24.73
2022-11-07T17:32:12.022Z,26.90
2022-11-07T17:34:39.037Z,22.48
2022-11-07T17:37:05.699Z,24.17
2022-11-07T17:39:32.175Z,24.20
2022-11-07T17:41:58.915Z,24.65
2022-11-07T17:44:25.409Z,25.60
2022-11-07T17:46:52.051Z,26.90
2022-11-07T17:49:19.539Z,20.77
2022-11-07T17:51:46.108Z,18.60
2022-11-07T17:54:13.891Z,22.15
2022-11-07T17:56:41.580Z,18.60
2022-11-07T17:59:13.225Z,19.25
2022-11-07T18:01:40.559Z,21.52
2022-11-07T18:04:09.428Z,17.52
2022-11-07T18:06:41.503Z,20.52
2022-11-07T18:09:11.661Z,20.63
2022-11-07T18:11:38.253Z,18.73
2022-11-07T18:14:05.070Z,17.73
2022-11-07T18:16:33.704Z,16.92
2022-11-07T18:19:01.472Z,16.42
2022-11-07T18:21:29.051Z,16.20
2022-11-07T18:23:56.397Z,14.35
2022-11-07T18:26:30.206Z,12.82
2022-11-07T18:29:00.655Z,15.20
2022-11-07T18:31:27.137Z,21.63
2022-11-07T18:33:58.687Z,16.90
2022-11-07T18:36:26.108Z,16.80
2022-11-07T18:38:52.715Z,20.73
2022-11-07T18:41:21.617Z,17.00
2022-11-07T18:43:48.872Z,15.15
2022-11-07T18:46:19.247Z,14.55
2022-11-07T18:48:46.525Z,14.95
2022-11-07T18:51:17.453Z,17.38
2022-11-07T18:53:44.727Z,19.95
2022-11-07T18:56:12.880Z,17.35
2022-11-07T18:58:41.456Z,19.58
2022-11-07T19:01:12.348Z,15.65
2022-11-07T19:03:40.477Z,13.23
2022-11-07T19:06:10.879Z,12.25
2022-11-07T19:08:39.577Z,9.43
2022-11-07T19:11:09.444Z,12.82
2022-11-07T19:13:37.489Z,12.80
2022-11-07T19:16:06.249Z,12.05
2022-11-07T19:18:33.188Z,12.13
2022-11-07T19:21:00.147Z,13.88
2022-11-07T19:23:26.696Z,14.13
2022-11-07T19:25:54.245Z,16.80
2022-11-07T19:28:21.019Z,25.52
2022-11-07T19:30:47.894Z,24.23
2022-11-07T19:33:15.911Z,21.92
2022-11-07T19:35:43.169Z,21.02
2022-11-07T19:38:12.549Z,18.42
2022-11-07T19:40:39.995Z,20.45
2022-11-07T19:43:09.407Z,20.63
2022-11-07T19:45:41.040Z,19.50
2022-11-07T19:48:07.837Z,17.85
2022-11-07T19:50:34.330Z,20.13
2022-11-07T19:53:00.848Z,18.35
2022-11-07T19:55:27.609Z,20.98
2022-11-07T19:57:54.065Z,21.92
2022-11-07T20:00:20.550Z,27.92
2022-11-07T20:02:47.817Z,29.08
2022-11-07T20:05:23.823Z,24.73
2022-11-07T20:08:04.787Z,26.60
2022-11-07T20:10:32.005Z,25.15
2022-11-07T20:12:58.522Z,24.35
2022-11-07T20:15:25.045Z,21.23
2022-11-07T20:17:51.587Z,22.70
2022-11-07T20:20:18.152Z,21.58
2022-11-07T20:22:49.256Z,21.40
2022-11-07T20:25:15.863Z,22.92
2022-11-07T20:27:42.652Z,19.95
2022-11-07T20:30:09.951Z,22.48
2022-11-07T20:32:36.745Z,23.08
2022-11-07T20:35:03.793Z,20.55
2022-11-07T20:37:30.488Z,20.25
2022-11-07T20:39:57.119Z,20.58
2022-11-07T20:42:23.653Z,20.17
2022-11-07T20:44:51.045Z,22.85
2022-11-07T20:47:18.046Z,20.05
2022-11-07T20:49:44.546Z,19.40
2022-11-07T20:52:11.177Z,21.08
2022-11-07T20:54:37.928Z,41.83
2022-11-07T20:57:04.877Z,85.65
2022-11-07T20:59:31.988Z,55.78
2022-11-07T21:02:02.994Z,43.72
2022-11-07T21:04:44.544Z,28.50
2022-11-07T21:07:19.624Z,24.85
2022-11-07T21:09:46.510Z,25.27
2022-11-07T21:12:13.265Z,26.65
2022-11-07T21:14:42.026Z,22.65
2022-11-07T21:17:09.339Z,24.23
2022-11-07T21:19:35.956Z,17.50
2022-11-07T21:22:02.455Z,19.45
2022-11-07T21:24:32.126Z,15.10
2022-11-07T21:26:58.996Z,14.63
2022-11-07T21:29:29.458Z,15.60
2022-11-07T21:31:57.082Z,13.70
2022-11-07T21:34:23.617Z,18.27
2022-11-07T21:36:50.286Z,19.38
2022-11-07T21:39:17.420Z,18.30
2022-11-07T21:41:44.141Z,17.92
2022-11-07T21:44:12.161Z,16.23
2022-11-07T21:46:38.825Z,18.27
2022-11-07T21:49:06.168Z,17.63
2022-11-07T21:51:34.607Z,18.50
2022-11-07T21:54:02.894Z,17.90
2022-11-07T21:56:39.428Z,18.48
2022-11-07T21:59:08.366Z,16.83
2022-11-07T22:01:37.149Z,16.08
2022-11-07T22:04:10.839Z,18.85
2022-11-07T22:06:41.663Z,18.80
2022-11-07T22:09:09.555Z,18.50
2022-11-07T22:11:36.879Z,18.55
2022-11-07T22:14:03.918Z,18.17
2022-11-07T22:16:31.638Z,16.50
2022-11-07T22:18:59.672Z,16.48
2022-11-07T22:21:26.415Z,14.57
2022-11-07T22:23:52.905Z,15.23
2022-11-07T22:26:21.880Z,15.63
2022-11-07T22:28:49.420Z,14.85
2022-11-07T22:31:22.802Z,17.15
2022-11-07T22:33:49.969Z,15.38
2022-11-07T22:36:17.281Z,16.38
2022-11-07T22:38:44.344Z,16.25
2022-11-07T22:41:15.326Z,20.23
2022-11-07T22:43:42.410Z,15.90
2022-11-07T22:46:12.568Z,16.20
2022-11-07T22:48:39.667Z,19.55
2022-11-07T22:51:23.151Z,17.92
2022-11-07T22:53:57.077Z,16.05
2022-11-07T22:56:23.909Z,14.52
2022-11-07T22:58:50.643Z,18.27
2022-11-07T23:01:25.779Z,16.08
2022-11-07T23:03:53.546Z,18.35
2022-11-07T23:06:20.701Z,17.67
2022-11-07T23:08:47.952Z,18.42
2022-11-07T23:11:46.568Z,15.63
2022-11-07T23:14:15.275Z,15.70
2022-11-07T23:16:48.226Z,18.35
2022-11-07T23:19:17.929Z,17.98
2022-11-07T23:21:44.446Z,16.20
2022-11-07T23:24:11.289Z,14.68
2022-11-07T23:26:38.405Z,18.17
2022-11-07T23:29:17.900Z,15.68
2022-11-07T23:31:46.890Z,14.13
2022-11-07T23:34:14.314Z,16.25
2022-11-07T23:36:43.842Z,14.70
2022-11-07T23:39:16.852Z,13.50
2022-11-07T23:41:43.984Z,14.38
2022-11-07T23:44:11.260Z,15.68
2022-11-07T23:46:56.786Z,14.77
2022-11-07T23:49:41.752Z,16.10
2022-11-07T23:52:08.315Z,16.38
2022-11-07T23:54:53.420Z,16.70
2022-11-07T23:57:20.360Z,16.20
